Time;durP1;ratioP1;P1;durP2;ratioP2;P2;SDS_P1;SDS_P2;PMS_P1;PMS_P2;Temp;Humidity;BMP_temperature;BMP_pressure;BME280_temperature;BME280_humidity;BME280_pressure;Samples;Min_cycle;Max_cycle;Signal;HPM_P1;HPM_P2
2022/12/08 00:01:09;;;;;;;7.32;1.42;;;3.00;99.90;;;;;;6183225;23;20036;-91
2022/12/08 00:03:35;;;;;;;5.93;1.48;;;3.10;99.90;;;;;;6183393;23;20012;-91
2022/12/08 00:11:32;;;;;;;4.10;1.45;;;3.00;99.90;;;;;;6182348;23;20068;-90
2022/12/08 00:13:57;;;;;;;4.22;1.50;;;2.90;99.90;;;;;;6182438;23;20009;-92
2022/12/08 00:16:23;;;;;;;6.55;1.30;;;2.90;99.90;;;;;;6177629;23;20104;-92
2022/12/08 00:18:49;;;;;;;3.33;1.10;;;2.80;99.90;;;;;;6181960;23;20011;-92
2022/12/08 00:21:15;;;;;;;6.60;1.30;;;2.80;99.90;;;;;;6180335;23;20017;-92
2022/12/08 00:23:40;;;;;;;7.95;1.42;;;2.80;99.90;;;;;;6177609;23;20013;-91
2022/12/08 00:26:06;;;;;;;6.75;1.42;;;2.80;99.90;;;;;;6171523;23;20066;-92
2022/12/08 00:28:33;;;;;;;5.65;1.70;;;2.80;99.90;;;;;;6176932;23;20029;-92
2022/12/08 00:30:59;;;;;;;3.92;1.10;;;2.80;99.90;;;;;;6202137;23;20016;-93
2022/12/08 00:33:27;;;;;;;5.18;1.48;;;2.80;99.90;;;;;;6175191;23;20016;-92
2022/12/08 00:35:53;;;;;;;6.68;1.67;;;2.70;99.90;;;;;;6203803;23;20048;-91
2022/12/08 00:38:19;;;;;;;4.07;1.20;;;2.70;99.90;;;;;;6210149;23;20053;-92
2022/12/08 00:40:45;;;;;;;7.57;1.67;;;2.70;99.90;;;;;;6208946;23;20005;-90
2022/12/08 00:43:11;;;;;;;5.53;1.40;;;2.70;99.90;;;;;;6207195;23;20012;-91
2022/12/08 00:45:37;;;;;;;7.20;1.35;;;2.70;99.90;;;;;;6183140;23;20021;-91
2022/12/08 00:48:02;;;;;;;5.53;1.58;;;2.70;99.90;;;;;;6209017;23;19997;-93
2022/12/08 00:50:28;;;;;;;5.18;1.40;;;2.70;99.90;;;;;;6209266;23;20004;-91
2022/12/08 00:52:54;;;;;;;6.57;1.25;;;2.60;99.90;;;;;;6208881;23;20005;-91
2022/12/08 00:55:19;;;;;;;6.65;1.30;;;2.50;99.90;;;;;;6182890;23;20016;-92
2022/12/08 00:57:45;;;;;;;5.45;1.33;;;2.60;99.90;;;;;;6182860;23;20080;-92
2022/12/08 01:00:11;;;;;;;6.65;1.58;;;2.50;99.90;;;;;;6209747;23;20035;-92
2022/12/08 01:02:36;;;;;;;6.13;1.40;;;2.50;99.90;;;;;;6182866;23;20029;-93
2022/12/08 01:05:02;;;;;;;3.15;1.20;;;2.40;99.90;;;;;;6184542;23;20024;-93
2022/12/08 01:07:28;;;;;;;4.32;1.38;;;2.40;99.90;;;;;;6183789;23;20032;-92
2022/12/08 01:09:54;;;;;;;6.25;1.25;;;2.40;99.90;;;;;;6207212;23;20005;-92
2022/12/08 01:12:19;;;;;;;5.30;1.30;;;2.40;99.90;;;;;;6183389;23;20044;-92
2022/12/08 01:14:45;;;;;;;5.82;1.67;;;2.30;99.90;;;;;;6183789;23;20055;-92
2022/12/08 01:17:10;;;;;;;6.20;1.52;;;2.40;99.90;;;;;;6208897;23;20012;-91
2022/12/08 01:19:36;;;;;;;4.00;1.10;;;2.30;99.90;;;;;;6181623;23;20028;-92
2022/12/08 01:22:02;;;;;;;6.10;1.35;;;2.30;99.90;;;;;;6164803;23;20063;-92
2022/12/08 01:24:27;;;;;;;4.45;1.60;;;2.30;99.90;;;;;;6159351;23;20027;-91
2022/12/08 01:26:53;;;;;;;5.53;1.98;;;2.30;99.90;;;;;;6183575;23;20028;-92
2022/12/08 01:29:19;;;;;;;4.70;1.52;;;2.30;99.90;;;;;;6185356;23;20013;-92
2022/12/08 01:31:45;;;;;;;4.15;1.48;;;2.30;99.90;;;;;;6182409;23;20017;-91
2022/12/08 01:34:11;;;;;;;5.03;1.30;;;2.20;99.90;;;;;;6156520;23;20044;-91
2022/12/08 01:36:37;;;;;;;5.53;1.40;;;2.30;99.90;;;;;;6156586;23;20434;-92
2022/12/08 01:39:05;;;;;;;6.05;1.92;;;2.30;99.90;;;;;;6180249;23;20013;-91
2022/12/08 01:41:33;;;;;;;6.68;1.85;;;2.40;99.90;;;;;;6157546;23;20016;-91
2022/12/08 01:44:08;;;;;;;6.93;1.77;;;2.40;99.90;;;;;;6156511;23;20017;-93
2022/12/08 01:46:35;;;;;;;7.38;1.80;;;2.40;99.90;;;;;;6183509;23;20421;-92
2022/12/08 01:49:04;;;;;;;5.80;1.45;;;2.50;99.90;;;;;;6155680;23;20093;-91
2022/12/08 01:51:33;;;;;;;7.18;1.65;;;2.50;99.90;;;;;;6156762;23;20116;-92
2022/12/08 01:54:01;;;;;;;6.47;1.83;;;2.50;99.90;;;;;;6155829;23;20407;-92
2022/12/08 01:56:57;;;;;;;8.05;1.90;;;2.60;99.90;;;;;;6183470;23;20020;-92
2022/12/08 01:59:24;;;;;;;4.70;1.70;;;2.60;99.90;;;;;;6181483;23;20023;-92
2022/12/08 02:01:50;;;;;;;7.45;1.50;;;2.60;99.90;;;;;;6156961;23;20017;-91
2022/12/08 02:04:16;;;;;;;5.13;1.50;;;2.70;99.90;;;;;;6182669;23;20304;-92
2022/12/08 02:06:43;;;;;;;8.95;1.77;;;2.70;99.90;;;;;;6156248;23;20017;-92
2022/12/08 02:09:10;;;;;;;5.55;1.35;;;2.70;99.90;;;;;;6180432;23;20060;-91
2022/12/08 02:11:35;;;;;;;5.13;1.58;;;2.80;99.90;;;;;;6156925;23;20017;-91
2022/12/08 02:14:04;;;;;;;6.15;1.58;;;2.80;99.90;;;;;;6156182;23;20504;-92
2022/12/08 02:16:55;;;;;;;5.03;1.52;;;2.80;99.90;;;;;;6184423;23;20432;-92
2022/12/08 02:19:42;;;;;;;6.47;1.80;;;2.80;99.90;;;;;;6182880;23;20469;-93
2022/12/08 02:22:36;;;;;;;6.47;1.83;;;2.80;99.90;;;;;;6158682;23;20013;-95
2022/12/08 02:25:20;;;;;;;7.95;1.90;;;2.90;99.90;;;;;;6161435;23;20016;-92
2022/12/08 02:27:59;;;;;;;4.88;1.40;;;2.80;99.90;;;;;;6159142;23;20025;-93
2022/12/08 02:30:45;;;;;;;3.60;1.48;;;2.80;99.90;;;;;;6157039;23;20017;-93
2022/12/08 02:33:54;;;;;;;9.45;1.70;;;2.90;99.90;;;;;;6159832;23;20021;-93
2022/12/08 02:36:35;;;;;;;3.30;1.30;;;2.80;99.90;;;;;;6158103;23;20013;-94
2022/12/08 02:39:07;;;;;;;4.60;1.63;;;2.80;99.90;;;;;;6158976;23;20063;-93
2022/12/08 02:41:52;;;;;;;4.07;1.40;;;2.70;99.90;;;;;;6159247;23;20017;-93
2022/12/08 02:44:28;;;;;;;5.65;1.55;;;2.70;99.90;;;;;;6159223;23;20047;-93
2022/12/08 02:46:58;;;;;;;3.88;1.30;;;2.70;99.90;;;;;;6159168;23;20009;-94
2022/12/08 02:49:32;;;;;;;2.90;1.40;;;2.70;99.90;;;;;;6159468;23;20316;-94
2022/12/08 02:52:11;;;;;;;4.95;1.45;;;2.70;99.90;;;;;;6184543;23;20020;-93
2022/12/08 02:54:39;;;;;;;4.93;1.45;;;2.70;99.90;;;;;;6160174;23;20386;-93
2022/12/08 02:57:16;;;;;;;4.57;1.52;;;2.70;99.90;;;;;;6158902;23;20017;-94
2022/12/08 02:59:59;;;;;;;4.20;1.40;;;2.80;99.90;;;;;;6158733;23;20017;-95
2022/12/08 03:02:59;;;;;;;6.63;1.38;;;2.80;99.90;;;;;;6185229;23;20025;-93
2022/12/08 03:05:46;;;;;;;6.60;1.50;;;2.80;99.90;;;;;;6164522;23;20013;-94
2022/12/08 03:08:16;;;;;;;4.40;1.40;;;2.80;99.90;;;;;;6193421;23;20021;-92
2022/12/08 03:10:51;;;;;;;6.53;1.70;;;2.90;99.90;;;;;;6170534;23;20017;-90
2022/12/08 03:13:22;;;;;;;5.72;1.60;;;2.90;99.90;;;;;;6193453;23;20009;-91
2022/12/08 03:15:49;;;;;;;2.40;1.23;;;2.90;99.90;;;;;;6159548;23;20016;-92
2022/12/08 03:18:17;;;;;;;4.45;1.60;;;2.90;99.90;;;;;;6157452;23;20013;-91
2022/12/08 03:20:46;;;;;;;5.53;1.52;;;3.00;99.90;;;;;;6157614;23;20009;-91
2022/12/08 03:23:14;;;;;;;4.25;1.27;;;3.00;99.90;;;;;;6186429;23;20315;-91
2022/12/08 03:25:47;;;;;;;4.57;1.50;;;3.00;99.90;;;;;;6185105;23;20079;-91
2022/12/08 03:28:13;;;;;;;3.38;1.30;;;3.00;99.90;;;;;;6184197;23;20055;-90
2022/12/08 03:30:41;;;;;;;4.40;1.48;;;3.00;99.90;;;;;;6185563;23;20013;-91
2022/12/08 03:33:21;;;;;;;5.65;1.63;;;3.10;99.90;;;;;;6180522;23;20088;-90
2022/12/08 03:35:47;;;;;;;5.15;1.77;;;3.10;99.90;;;;;;6182860;23;20018;-90
2022/12/08 03:38:15;;;;;;;4.85;1.60;;;3.10;99.90;;;;;;6183834;23;20044;-90
2022/12/08 03:40:41;;;;;;;3.67;1.50;;;3.10;99.90;;;;;;6183355;23;20012;-88
2022/12/08 03:43:07;;;;;;;4.18;1.85;;;3.10;99.90;;;;;;6182337;23;20027;-89
2022/12/08 03:45:33;;;;;;;6.80;1.67;;;3.20;99.90;;;;;;6181965;23;20009;-90
2022/12/08 03:47:58;;;;;;;6.60;1.58;;;3.20;99.90;;;;;;6181233;23;20020;-89
2022/12/08 03:50:24;;;;;;;4.82;1.40;;;3.30;99.90;;;;;;6182912;23;20024;-90
2022/12/08 03:52:50;;;;;;;5.30;1.67;;;3.20;99.90;;;;;;6158450;23;20088;-92
2022/12/08 03:55:16;;;;;;;3.97;1.27;;;3.20;99.90;;;;;;6183803;23;20024;-91
2022/12/08 03:57:42;;;;;;;3.85;1.23;;;3.20;99.90;;;;;;6158360;23;20009;-90
2022/12/08 04:00:13;;;;;;;4.22;0.93;;;3.20;99.90;;;;;;6132472;23;20020;-89
2022/12/08 04:02:39;;;;;;;3.03;0.95;;;3.20;99.90;;;;;;6132144;23;20052;-91
2022/12/08 04:05:06;;;;;;;2.50;0.95;;;3.10;99.90;;;;;;6156178;23;20068;-91
2022/12/08 04:07:31;;;;;;;1.75;0.80;;;3.10;99.90;;;;;;6185024;23;20013;-90
2022/12/08 04:09:57;;;;;;;4.13;1.02;;;3.00;99.90;;;;;;6133692;23;20048;-91
2022/12/08 04:12:22;;;;;;;2.80;0.85;;;3.00;99.90;;;;;;6158519;23;20096;-91
2022/12/08 04:14:48;;;;;;;2.63;0.88;;;3.00;99.90;;;;;;6158786;23;20060;-90
2022/12/08 04:17:14;;;;;;;1.88;0.75;;;3.00;99.90;;;;;;6165318;23;20017;-90
2022/12/08 04:19:39;;;;;;;2.72;1.00;;;3.00;99.90;;;;;;6146114;23;20013;-90
2022/12/08 04:22:06;;;;;;;2.65;0.90;;;2.90;99.90;;;;;;6170254;23;20028;-90
2022/12/08 04:24:31;;;;;;;3.97;1.40;;;2.90;99.90;;;;;;6170671;23;20047;-90
2022/12/08 04:26:57;;;;;;;4.70;1.55;;;2.90;99.90;;;;;;6169639;23;20012;-90
2022/12/08 04:29:24;;;;;;;4.28;1.58;;;3.00;99.90;;;;;;6173502;23;20080;-90
2022/12/08 04:31:50;;;;;;;5.32;1.77;;;3.00;99.90;;;;;;6173714;23;20072;-91
2022/12/08 04:34:15;;;;;;;9.52;2.30;;;3.00;99.90;;;;;;6198206;23;20064;-90
2022/12/08 04:36:41;;;;;;;6.95;2.28;;;3.00;99.90;;;;;;6174784;23;20013;-90
2022/12/08 04:39:06;;;;;;;6.60;2.70;;;3.00;99.90;;;;;;6162955;23;20439;-89
2022/12/08 04:41:32;;;;;;;8.35;2.47;;;3.10;99.90;;;;;;6133330;23;20067;-91
2022/12/08 04:44:00;;;;;;;9.13;3.20;;;3.10;99.90;;;;;;6161078;23;20075;-92
2022/12/08 04:46:25;;;;;;;8.57;2.60;;;3.10;99.90;;;;;;6164269;23;20358;-90
2022/12/08 04:48:51;;;;;;;7.32;2.45;;;3.10;99.90;;;;;;6193784;23;20013;-90
2022/12/08 04:51:19;;;;;;;7.40;2.78;;;3.10;99.90;;;;;;6161199;23;20196;-92
2022/12/08 04:53:45;;;;;;;6.90;2.60;;;3.10;99.90;;;;;;6185057;23;20076;-91
2022/12/08 04:56:15;;;;;;;7.50;2.60;;;3.10;99.90;;;;;;6184199;23;20017;-91
2022/12/08 04:58:41;;;;;;;7.90;2.80;;;3.10;99.90;;;;;;6183373;23;20036;-91
2022/12/08 05:01:07;;;;;;;7.38;3.00;;;3.00;99.90;;;;;;6156889;23;20044;-91
2022/12/08 05:03:32;;;;;;;6.90;2.47;;;3.10;99.90;;;;;;6131496;23;20469;-91
2022/12/08 05:06:00;;;;;;;7.90;2.90;;;3.00;99.90;;;;;;6183303;23;20017;-91
2022/12/08 05:08:26;;;;;;;10.75;3.15;;;3.00;99.90;;;;;;6156568;23;20040;-91
2022/12/08 05:10:51;;;;;;;7.45;3.00;;;3.00;99.90;;;;;;6191930;23;20438;-91
2022/12/08 05:13:17;;;;;;;7.80;3.22;;;3.00;99.90;;;;;;6169997;23;20033;-90
2022/12/08 05:15:43;;;;;;;7.93;2.40;;;3.00;99.90;;;;;;6156679;23;20112;-91
2022/12/08 05:18:09;;;;;;;9.82;2.63;;;3.10;99.90;;;;;;6183338;23;20009;-90
2022/12/08 05:20:34;;;;;;;6.70;2.78;;;3.00;99.90;;;;;;6131589;23;20063;-91
2022/12/08 05:23:00;;;;;;;8.25;2.88;;;3.00;99.90;;;;;;6156042;23;20013;-90
2022/12/08 05:25:27;;;;;;;7.15;2.63;;;3.00;99.90;;;;;;6156273;23;20035;-89
2022/12/08 05:27:53;;;;;;;8.05;2.65;;;3.00;99.90;;;;;;6186556;23;20020;-91
2022/12/08 05:30:18;;;;;;;7.07;2.55;;;3.00;99.90;;;;;;6156146;23;20021;-92
2022/12/08 05:32:44;;;;;;;7.22;2.20;;;3.00;99.90;;;;;;6156127;23;20016;-90
2022/12/08 05:35:10;;;;;;;10.00;2.92;;;3.00;99.90;;;;;;6155739;23;20037;-91
2022/12/08 05:37:35;;;;;;;6.82;2.50;;;3.00;99.90;;;;;;6183013;23;20100;-90
2022/12/08 05:40:01;;;;;;;8.60;2.20;;;3.10;99.90;;;;;;6156578;23;20135;-91
2022/12/08 05:42:27;;;;;;;4.72;1.92;;;3.10;99.90;;;;;;6182325;23;20014;-90
2022/12/08 05:44:52;;;;;;;6.00;2.30;;;3.10;99.90;;;;;;6181327;23;20438;-92
2022/12/08 05:47:18;;;;;;;4.82;1.73;;;3.10;99.90;;;;;;6183588;23;20032;-92
2022/12/08 05:49:44;;;;;;;7.53;2.33;;;3.10;99.90;;;;;;6157273;23;20098;-91
2022/12/08 05:52:09;;;;;;;6.30;1.77;;;3.10;99.90;;;;;;6155374;23;20017;-92
2022/12/08 05:54:35;;;;;;;6.53;2.10;;;3.10;99.90;;;;;;6155321;23;20506;-91
2022/12/08 05:57:01;;;;;;;5.05;1.70;;;3.10;99.90;;;;;;6158184;23;20048;-91
2022/12/08 05:59:26;;;;;;;5.13;1.67;;;3.10;99.90;;;;;;6157345;23;20020;-92
2022/12/08 06:01:52;;;;;;;6.88;1.83;;;3.10;99.90;;;;;;6155440;23;20020;-92
2022/12/08 06:04:17;;;;;;;5.32;1.65;;;3.10;99.90;;;;;;6156348;23;20016;-92
2022/12/08 06:06:43;;;;;;;6.45;1.85;;;3.10;99.90;;;;;;6156326;23;20099;-90
2022/12/08 06:09:09;;;;;;;5.78;1.63;;;3.10;99.90;;;;;;6157215;23;20017;-92
2022/12/08 06:11:35;;;;;;;4.22;1.48;;;3.10;99.90;;;;;;6158417;23;20099;-92
2022/12/08 06:14:02;;;;;;;5.60;1.95;;;3.10;99.90;;;;;;6158096;23;20013;-92
2022/12/08 06:16:29;;;;;;;6.60;1.77;;;3.10;99.90;;;;;;6156432;23;20036;-92
2022/12/08 06:18:56;;;;;;;4.10;1.40;;;3.10;99.90;;;;;;6155768;23;20009;-93
2022/12/08 06:21:22;;;;;;;4.68;1.77;;;3.10;99.90;;;;;;6157079;23;20443;-92
2022/12/08 06:23:50;;;;;;;5.25;1.67;;;3.10;99.90;;;;;;6157577;23;20100;-92
2022/12/08 06:26:16;;;;;;;4.75;1.65;;;3.10;99.90;;;;;;6158927;23;20028;-92
2022/12/08 06:28:42;;;;;;;3.88;1.40;;;3.10;99.90;;;;;;6163561;23;20021;-92
2022/12/08 06:31:14;;;;;;;5.47;1.58;;;3.00;99.90;;;;;;6156780;23;20419;-91
2022/12/08 06:33:40;;;;;;;3.50;1.40;;;3.00;99.90;;;;;;6155814;23;20013;-91
2022/12/08 06:36:06;;;;;;;3.45;1.52;;;3.00;99.90;;;;;;6182334;23;20438;-91
2022/12/08 06:38:32;;;;;;;5.65;1.73;;;3.00;99.90;;;;;;6183568;23;20009;-90
2022/12/08 06:40:59;;;;;;;7.22;1.83;;;3.00;99.90;;;;;;6156157;23;20075;-91
2022/12/08 06:43:25;;;;;;;5.18;1.80;;;3.00;99.90;;;;;;6156679;23;20083;-92
2022/12/08 06:45:51;;;;;;;5.22;1.70;;;3.00;99.90;;;;;;6156916;23;20013;-91
2022/12/08 06:48:18;;;;;;;8.15;2.38;;;2.90;99.90;;;;;;6157160;23;20084;-93
2022/12/08 06:50:44;;;;;;;4.70;1.63;;;3.00;99.90;;;;;;6181399;23;20017;-91
2022/12/08 06:53:14;;;;;;;7.10;1.90;;;3.00;99.90;;;;;;6183079;23;20009;-91
2022/12/08 06:55:47;;;;;;;6.65;1.70;;;3.00;99.90;;;;;;6183030;23;20427;-91
2022/12/08 06:58:13;;;;;;;5.28;1.77;;;3.00;99.90;;;;;;6182658;23;20009;-91
2022/12/08 07:00:40;;;;;;;4.88;1.70;;;3.00;99.90;;;;;;6182098;23;20017;-91
2022/12/08 07:03:07;;;;;;;6.75;1.92;;;3.00;99.90;;;;;;6181200;23;20316;-91
2022/12/08 07:05:33;;;;;;;5.75;1.73;;;3.00;99.90;;;;;;6182363;23;20016;-91
2022/12/08 07:08:00;;;;;;;4.07;1.42;;;3.00;99.90;;;;;;6179728;23;20387;-94
2022/12/08 07:10:26;;;;;;;4.45;2.15;;;3.00;99.90;;;;;;6198840;23;20013;-93
2022/12/08 07:12:51;;;;;;;4.38;1.45;;;3.10;99.90;;;;;;6176489;23;20013;-95
2022/12/08 07:15:17;;;;;;;6.20;1.85;;;3.00;99.90;;;;;;6193482;23;20013;-94
2022/12/08 07:17:43;;;;;;;4.25;1.50;;;3.10;99.90;;;;;;6170152;23;20017;-95
2022/12/08 07:20:09;;;;;;;7.68;1.70;;;3.10;99.90;;;;;;6177533;23;20020;-95
2022/12/08 07:22:35;;;;;;;5.20;1.42;;;3.10;99.90;;;;;;6174938;23;20023;-95
2022/12/08 07:25:00;;;;;;;4.80;1.67;;;3.10;99.90;;;;;;6174185;23;20013;-94
2022/12/08 07:27:27;;;;;;;4.30;1.63;;;3.10;99.90;;;;;;6147573;23;20043;-93
2022/12/08 07:29:53;;;;;;;5.88;1.73;;;3.00;99.90;;;;;;6197973;23;20395;-94
2022/12/08 07:32:18;;;;;;;5.10;1.33;;;3.00;99.90;;;;;;6170534;23;20021;-94
2022/12/08 07:34:44;;;;;;;1.85;0.80;;;2.90;99.90;;;;;;6186123;23;20481;-93
2022/12/08 07:37:10;;;;;;;3.30;1.02;;;2.90;99.90;;;;;;6160951;23;20451;-92
2022/12/08 07:39:36;;;;;;;3.13;0.88;;;3.00;99.90;;;;;;6160208;23;20016;-93
2022/12/08 07:42:01;;;;;;;3.50;1.02;;;2.90;99.90;;;;;;6185273;23;20094;-91
2022/12/08 07:44:27;;;;;;;2.55;0.93;;;2.80;99.90;;;;;;6186490;23;20439;-91
2022/12/08 07:46:52;;;;;;;4.57;1.08;;;2.80;99.90;;;;;;6158551;23;20068;-91
2022/12/08 07:49:18;;;;;;;4.57;1.10;;;2.80;99.90;;;;;;6158649;23;20052;-93
2022/12/08 07:51:44;;;;;;;3.28;0.93;;;2.80;99.90;;;;;;6157373;23;20067;-92
2022/12/08 07:54:11;;;;;;;3.63;1.05;;;2.70;99.90;;;;;;6159401;23;20021;-92
2022/12/08 07:56:37;;;;;;;3.03;1.05;;;2.70;99.90;;;;;;6158931;23;20013;-90
2022/12/08 07:59:03;;;;;;;4.80;1.40;;;2.70;99.90;;;;;;6184759;23;20009;-91
2022/12/08 08:01:32;;;;;;;4.70;1.33;;;2.70;99.90;;;;;;6158337;23;20097;-91
2022/12/08 08:04:03;;;;;;;4.60;1.60;;;2.60;99.90;;;;;;6158210;23;20045;-92
2022/12/08 08:06:30;;;;;;;6.80;2.40;;;2.60;99.90;;;;;;6133141;23;20067;-91
2022/12/08 08:08:57;;;;;;;5.78;2.20;;;2.60;99.90;;;;;;6155910;23;20308;-90
2022/12/08 08:11:23;;;;;;;7.32;2.83;;;2.70;99.90;;;;;;6184074;23;20017;-90
2022/12/08 08:13:49;;;;;;;7.22;2.75;;;2.50;99.90;;;;;;6158403;23;20518;-89
2022/12/08 08:16:16;;;;;;;9.20;3.00;;;2.60;99.90;;;;;;6161094;23;20044;-88
2022/12/08 08:18:42;;;;;;;8.57;2.80;;;2.60;99.90;;;;;;6159823;23;20012;-89
2022/12/08 08:21:08;;;;;;;8.50;2.70;;;2.60;99.90;;;;;;6181828;23;20013;-89
2022/12/08 08:23:34;;;;;;;7.93;2.28;;;2.70;99.90;;;;;;6155189;23;20048;-90
2022/12/08 08:26:03;;;;;;;7.53;2.35;;;2.60;99.90;;;;;;6156576;23;20324;-89
2022/12/08 08:28:30;;;;;;;6.25;1.90;;;2.70;99.90;;;;;;6158611;23;20025;-90
2022/12/08 08:30:57;;;;;;;7.80;2.08;;;2.60;99.90;;;;;;6154126;23;20018;-91
2022/12/08 08:33:23;;;;;;;6.85;1.75;;;2.60;99.90;;;;;;6157237;23;20088;-90
2022/12/08 08:35:48;;;;;;;5.57;1.83;;;2.60;99.90;;;;;;6156296;23;20091;-84
2022/12/08 08:38:14;;;;;;;6.88;1.70;;;2.60;99.90;;;;;;6156465;23;20343;-85
2022/12/08 08:40:40;;;;;;;5.40;1.48;;;2.60;99.90;;;;;;6156701;23;20048;-84
2022/12/08 08:43:05;;;;;;;8.73;1.60;;;2.60;99.90;;;;;;6157193;23;20128;-84
2022/12/08 08:45:32;;;;;;;3.10;1.30;;;2.60;99.90;;;;;;6156006;23;20016;-84
2022/12/08 08:47:58;;;;;;;5.28;1.50;;;2.60;99.90;;;;;;6157781;23;20059;-84
2022/12/08 08:50:24;;;;;;;4.78;1.60;;;2.60;99.90;;;;;;6181988;23;20044;-84
2022/12/08 08:52:50;;;;;;;3.78;1.05;;;2.60;99.90;;;;;;6157522;23;20019;-85
2022/12/08 08:55:16;;;;;;;4.55;1.35;;;2.60;99.90;;;;;;6158614;23;20017;-84
2022/12/08 08:57:42;;;;;;;4.03;1.08;;;2.60;99.90;;;;;;6184121;23;20053;-86
2022/12/08 09:00:11;;;;;;;2.95;1.17;;;2.50;99.90;;;;;;6185298;23;20016;-85
2022/12/08 09:02:37;;;;;;;4.70;1.08;;;2.60;99.90;;;;;;6160446;23;20017;-84
2022/12/08 09:05:04;;;;;;;5.78;1.20;;;2.50;99.90;;;;;;6167537;23;20526;-85
2022/12/08 09:07:30;;;;;;;5.00;1.00;;;2.50;99.90;;;;;;6168708;23;20048;-88
2022/12/08 09:09:56;;;;;;;4.22;0.90;;;2.60;99.90;;;;;;6176699;23;20016;-87
2022/12/08 09:12:21;;;;;;;3.15;1.00;;;2.60;99.90;;;;;;6183277;23;20005;-89
2022/12/08 09:14:47;;;;;;;4.45;0.85;;;2.70;99.90;;;;;;6182605;23;20020;-89
2022/12/08 09:17:13;;;;;;;4.03;0.88;;;2.60;99.90;;;;;;6182371;23;20009;-89
2022/12/08 09:19:39;;;;;;;4.75;1.33;;;2.70;99.90;;;;;;6179404;23;20017;-88
2022/12/08 09:22:04;;;;;;;5.28;1.20;;;2.60;99.90;;;;;;6182785;23;20053;-89
2022/12/08 09:24:30;;;;;;;6.57;1.10;;;2.60;99.90;;;;;;6181814;23;20016;-89
2022/12/08 09:26:56;;;;;;;3.05;0.90;;;2.70;99.90;;;;;;6157364;23;20012;-90
2022/12/08 09:29:21;;;;;;;6.15;1.05;;;2.70;99.90;;;;;;6181975;23;20008;-89
2022/12/08 09:31:47;;;;;;;3.90;0.90;;;2.70;99.90;;;;;;6206772;23;20009;-90
2022/12/08 09:34:13;;;;;;;2.30;0.95;;;2.70;99.90;;;;;;6171530;23;20041;-90
2022/12/08 09:36:39;;;;;;;2.88;0.90;;;2.70;99.90;;;;;;6187163;23;20032;-90
2022/12/08 09:39:04;;;;;;;5.82;1.20;;;2.80;99.90;;;;;;6156486;23;20016;-90
2022/12/08 09:41:32;;;;;;;4.43;1.08;;;2.60;99.90;;;;;;6158300;23;20017;-90
2022/12/08 09:44:18;;;;;;;3.78;1.17;;;2.60;99.90;;;;;;6158858;23;20087;-90
2022/12/08 09:46:47;;;;;;;3.63;0.95;;;2.60;99.90;;;;;;6184434;23;20017;-90
2022/12/08 09:49:17;;;;;;;9.77;1.23;;;2.60;99.90;;;;;;6133330;23;20093;-89
2022/12/08 09:51:44;;;;;;;3.28;1.23;;;2.60;99.90;;;;;;6158709;23;20024;-89
2022/12/08 09:54:21;;;;;;;3.20;0.77;;;2.60;99.90;;;;;;6184110;23;20095;-89
2022/12/08 09:56:49;;;;;;;4.72;1.02;;;2.60;99.90;;;;;;6159113;23;20063;-89
2022/12/08 09:59:30;;;;;;;4.40;1.08;;;2.60;99.90;;;;;;6158630;23;20024;-89
2022/12/08 10:01:56;;;;;;;5.03;1.23;;;2.60;99.90;;;;;;6183346;23;20021;-89
2022/12/08 10:04:32;;;;;;;3.38;1.00;;;2.60;99.90;;;;;;6184728;23;20017;-87
2022/12/08 10:07:13;;;;;;;4.07;1.40;;;2.60;99.90;;;;;;6156745;23;20080;-86
2022/12/08 10:09:46;;;;;;;3.47;1.30;;;2.50;99.90;;;;;;6183805;23;20013;-85
2022/12/08 10:12:25;;;;;;;5.75;1.30;;;2.50;99.90;;;;;;6131655;23;20268;-83
2022/12/08 10:14:53;;;;;;;4.97;1.25;;;2.50;99.90;;;;;;6183558;23;20361;-85
2022/12/08 10:17:27;;;;;;;6.22;1.40;;;2.40;99.90;;;;;;6159864;23;20020;-87
2022/12/08 10:20:05;;;;;;;4.18;1.33;;;2.50;99.90;;;;;;6178698;23;20024;-85
2022/12/08 10:22:34;;;;;;;4.80;1.45;;;2.40;99.90;;;;;;6154065;23;20024;-84
2022/12/08 10:25:23;;;;;;;5.18;1.77;;;2.40;99.90;;;;;;6153268;23;20016;-84
2022/12/08 10:27:53;;;;;;;3.88;1.65;;;2.50;99.90;;;;;;6177852;23;20048;-83
2022/12/08 10:30:20;;;;;;;4.40;1.58;;;2.40;99.90;;;;;;6155313;23;20072;-84
2022/12/08 10:32:49;;;;;;;7.22;1.70;;;2.40;99.90;;;;;;6155828;23;20013;-84
2022/12/08 10:35:18;;;;;;;6.65;2.03;;;2.40;99.90;;;;;;6154233;23;20021;-83
2022/12/08 10:38:05;;;;;;;7.30;1.80;;;2.40;99.90;;;;;;6181949;23;20013;-84
2022/12/08 10:40:36;;;;;;;6.85;2.55;;;2.50;99.90;;;;;;6181496;23;20381;-84
2022/12/08 10:43:04;;;;;;;7.75;2.10;;;2.50;99.90;;;;;;6180744;23;20045;-85
2022/12/08 10:45:40;;;;;;;6.53;2.28;;;2.50;99.90;;;;;;6133156;23;20017;-85
2022/12/08 10:48:17;;;;;;;8.13;2.88;;;2.60;99.90;;;;;;6156361;23;20017;-84
2022/12/08 10:51:05;;;;;;;6.22;2.22;;;2.60;99.90;;;;;;6182240;23;20024;-84
2022/12/08 10:53:44;;;;;;;7.82;2.40;;;2.60;99.90;;;;;;6156741;23;20328;-84
2022/12/08 10:56:15;;;;;;;7.97;3.05;;;2.60;99.90;;;;;;6157405;23;20055;-83
2022/12/08 10:58:42;;;;;;;8.13;2.80;;;2.70;99.90;;;;;;6183463;23;20013;-83
2022/12/08 11:01:25;;;;;;;8.07;2.75;;;2.70;99.90;;;;;;6155640;23;20072;-84
2022/12/08 11:03:58;;;;;;;8.48;2.85;;;2.70;99.90;;;;;;6154790;23;20017;-84
2022/12/08 11:06:40;;;;;;;6.70;2.67;;;2.70;99.90;;;;;;6180307;23;20021;-84
2022/12/08 11:09:14;;;;;;;8.50;2.80;;;2.70;99.90;;;;;;6183145;23;20024;-85
2022/12/08 11:11:47;;;;;;;9.45;3.42;;;2.70;99.90;;;;;;6155523;23;20092;-84
2022/12/08 11:14:15;;;;;;;7.47;3.42;;;2.70;99.90;;;;;;6156719;23;20021;-83
2022/12/08 11:16:41;;;;;;;7.72;3.15;;;2.70;99.90;;;;;;6157341;23;20072;-85
2022/12/08 11:19:14;;;;;;;9.02;2.55;;;2.70;99.90;;;;;;6154181;23;20013;-85
2022/12/08 11:21:41;;;;;;;7.90;2.63;;;2.70;99.90;;;;;;6181389;23;20024;-85
2022/12/08 11:24:26;;;;;;;7.68;2.95;;;2.60;99.90;;;;;;6183191;23;20013;-85
2022/12/08 11:27:03;;;;;;;7.25;2.60;;;2.60;99.90;;;;;;6156322;23;20339;-86
2022/12/08 11:29:31;;;;;;;9.98;2.70;;;2.60;99.90;;;;;;6155461;23;20023;-85
2022/12/08 11:32:03;;;;;;;7.82;2.60;;;2.60;99.90;;;;;;6155619;23;20392;-85
2022/12/08 11:34:56;;;;;;;7.53;3.47;;;2.60;99.90;;;;;;6182892;23;20019;-85
2022/12/08 11:37:40;;;;;;;8.90;2.38;;;2.70;99.90;;;;;;6155229;23;20100;-85
2022/12/08 11:40:13;;;;;;;10.15;2.97;;;2.80;99.90;;;;;;6180843;23;20347;-85
2022/12/08 11:42:59;;;;;;;8.27;2.83;;;2.90;99.90;;;;;;6155352;23;20324;-85
2022/12/08 11:45:30;;;;;;;7.22;2.67;;;2.90;99.90;;;;;;6156097;23;20020;-85
2022/12/08 11:48:33;;;;;;;6.45;2.25;;;2.90;99.90;;;;;;6180194;23;20390;-85
2022/12/08 11:51:20;;;;;;;7.60;2.78;;;3.00;99.90;;;;;;6153832;23;20024;-85
2022/12/08 11:54:21;;;;;;;7.78;2.25;;;3.00;99.90;;;;;;6154010;23;20465;-85
2022/12/08 11:56:51;;;;;;;7.28;2.00;;;3.10;99.90;;;;;;6131582;23;20027;-86
2022/12/08 11:59:30;;;;;;;6.38;2.30;;;3.20;99.90;;;;;;6182915;23;20015;-85
2022/12/08 12:01:58;;;;;;;6.35;2.35;;;3.20;99.90;;;;;;6155051;23;20088;-85
2022/12/08 12:04:38;;;;;;;6.60;2.65;;;3.20;99.90;;;;;;6182139;23;20774;-85
2022/12/08 12:07:15;;;;;;;7.07;2.30;;;3.30;99.90;;;;;;6130264;23;20021;-85
2022/12/08 12:10:25;;;;;;;7.32;2.40;;;3.40;99.90;;;;;;6154861;23;20454;-86
2022/12/08 12:13:17;;;;;;;6.75;3.03;;;3.40;99.90;;;;;;6088897;23;20014;-86
2022/12/08 12:16:01;;;;;;;;;;;3.50;99.90;;;;;;6089672;23;20014;-85
2022/12/08 12:18:37;;;;;;;7.82;2.53;;;3.60;99.90;;;;;;6088318;23;19914;-84
2022/12/08 12:21:09;;;;;;;7.82;2.47;;;3.70;99.90;;;;;;6066066;23;20022;-84
2022/12/08 12:24:02;;;;;;;6.88;2.65;;;3.80;99.90;;;;;;6091857;23;20018;-85
2022/12/08 12:26:31;;;;;;;6.68;2.70;;;3.90;99.90;;;;;;6086380;23;20040;-89
2022/12/08 12:29:02;;;;;;;6.35;2.92;;;4.00;99.90;;;;;;6067764;23;20023;-88
2022/12/08 12:31:46;;;;;;;9.48;2.95;;;4.10;99.90;;;;;;6092282;23;20057;-90
2022/12/08 12:34:30;;;;;;;8.40;3.20;;;4.20;99.90;;;;;;6069463;23;20022;-94
2022/12/08 12:37:36;;;;;;;6.70;2.70;;;4.20;99.90;;;;;;6046542;23;20021;-92
2022/12/08 12:40:06;;;;;;;6.72;2.70;;;4.30;99.90;;;;;;5980350;24;20044;-91
2022/12/08 12:42:50;;;;;;;7.30;2.85;;;4.40;99.90;;;;;;5934251;24;20112;-91
2022/12/08 12:45:16;;;;;;;8.65;3.17;;;4.50;99.90;;;;;;5955808;24;20032;-88
2022/12/08 12:47:57;;;;;;;8.15;3.05;;;4.50;99.90;;;;;;5972624;23;20054;-90
2022/12/08 12:50:33;;;;;;;9.73;3.08;;;4.50;99.90;;;;;;6065378;23;20107;-90
2022/12/08 12:53:02;;;;;;;8.48;2.90;;;4.40;99.90;;;;;;6042270;23;20023;-89
2022/12/08 12:55:54;;;;;;;7.97;2.92;;;4.30;99.90;;;;;;6067443;23;20018;-90
2022/12/08 12:58:29;;;;;;;8.98;3.08;;;4.20;99.90;;;;;;6080630;23;20015;-92
2022/12/08 13:01:10;;;;;;;8.27;2.80;;;4.20;99.90;;;;;;6087396;23;20099;-90
2022/12/08 13:03:50;;;;;;;7.72;2.97;;;4.10;99.90;;;;;;6086973;23;20018;-91
2022/12/08 13:06:31;;;;;;;9.00;3.85;;;4.00;99.90;;;;;;6064597;23;20013;-91
2022/12/08 13:08:58;;;;;;;8.02;2.97;;;4.00;99.90;;;;;;6066200;23;20086;-91
2022/12/08 13:11:24;;;;;;;9.13;3.25;;;4.00;99.90;;;;;;6066564;23;20014;-92
2022/12/08 13:14:00;;;;;;;10.65;2.88;;;4.00;99.90;;;;;;6135948;23;20017;-91
2022/12/08 13:16:30;;;;;;;9.55;2.80;;;4.00;99.90;;;;;;6182251;23;20016;-91
2022/12/08 13:19:01;;;;;;;7.47;2.90;;;4.00;99.90;;;;;;6175180;23;20065;-91